To NAV CANADA Home Page Login to a new session Search on AWWS site Feedback and Comments Disclaimer Vers la page française équivalente Tips FAQ What's new on the site To the Forecasts and Observations / NOTAM section To "File a Flight Plan" website Publications and other links Update of the User's profile FIC Telephone Numbers My Weather Data Folder Route Weather Data Regional Weather Data Local Weather Data To the Forecasts and Observations / NOTAM section
Request Generated 05/06/2016 at 11:09:50 UTC . Weather information available at that time is displayed.

METAR/TAF

HAVRE ST-PIERRE/QC    (show WxCam)

METAR CYGV 061100Z AUTO 36005KT 9SM SCT190 SCT210 SCT240 02/01 A2989
RMK SLP124=
METAR CYGV 061000Z AUTO 03004KT 9SM FEW210 01/00 A2989 RMK SLP125=
METAR CYGV 060900Z AUTO 03005KT 9SM SCT220 BKN250 M00/M01 A2989 RMK
SLP126=

TAF CYGV 060738Z 0608/0620 02005KT P6SM SCT015 TEMPO 0608/0620 BKN015
RMK FCST BASED ON AUTO OBS. NXT FCST BY 061400Z=
Your time UTC time
Weather data provided by Environment Canada and NAV CANADA